Time;durP1;ratioP1;P1;durP2;ratioP2;P2;SDS_P1;SDS_P2;PMS_P1;PMS_P2;Temp;Humidity;BMP_temperature;BMP_pressure;BME280_temperature;BME280_humidity;BME280_pressure;Samples;Min_cycle;Max_cycle;Signal;HPM_P1;HPM_P2
2022/06/14 00:03:33;;;;;;;;;5.00;5.00;;;;;22.17;43.43;101006.41;110265;1264;18966;-47
2022/06/14 00:06:18;;;;;;;;;6.00;6.00;;;;;22.14;43.36;101009.06;110266;1264;19623;-49
2022/06/14 00:09:01;;;;;;;;;6.00;6.00;;;;;22.13;43.36;101008.80;110221;1264;18464;-45
2022/06/14 00:11:28;;;;;;;;;6.00;6.00;;;;;22.16;43.24;101009.05;110273;1264;20213;-47
2022/06/14 00:13:56;;;;;;;;;6.00;6.00;;;;;22.14;43.15;101015.03;110302;1265;19828;-45
2022/06/14 00:16:23;;;;;;;;;5.67;5.67;;;;;22.12;43.20;101009.11;110253;1264;18490;-46
2022/06/14 00:18:50;;;;;;;;;7.00;7.00;;;;;22.12;43.17;101014.40;110295;1265;18762;-47
2022/06/14 00:21:17;;;;;;;;;5.00;5.00;;;;;22.10;43.23;101008.98;110231;1264;20041;-48
2022/06/14 00:23:44;;;;;;;;;5.33;5.33;;;;;22.08;43.19;101013.54;110242;1265;18579;-47
2022/06/14 00:26:12;;;;;;;;;6.00;5.67;;;;;22.06;43.07;101016.85;110265;1264;18702;-47
2022/06/14 00:28:39;;;;;;;;;7.00;6.00;;;;;22.07;43.12;101015.53;110345;1262;19515;-46
2022/06/14 00:31:06;;;;;;;;;5.00;5.00;;;;;22.03;43.14;101012.88;110245;1262;18540;-49
2022/06/14 00:33:34;;;;;;;;;5.50;5.50;;;;;22.01;43.10;101012.15;110254;1264;22967;-47
2022/06/14 00:36:01;;;;;;;;;6.00;6.00;;;;;21.99;43.20;101011.13;110191;1264;19947;-49
2022/06/14 00:38:28;;;;;;;;;6.00;6.00;;;;;21.98;43.00;101012.52;110302;1264;18354;-48
2022/06/14 00:40:56;;;;;;;;;5.33;5.33;;;;;21.97;43.16;101017.04;110338;1264;21814;-47
2022/06/14 00:43:23;;;;;;;;;6.00;5.33;;;;;21.98;43.26;101018.57;110291;1264;19500;-48
2022/06/14 00:45:51;;;;;;;;;5.00;5.00;;;;;22.00;43.35;101017.64;110217;1262;18648;-47
2022/06/14 00:48:19;;;;;;;;;5.67;5.67;;;;;22.07;43.08;101020.95;110280;1264;18885;-48
2022/06/14 00:50:46;;;;;;;;;6.00;6.00;;;;;22.09;43.22;101020.38;110269;1264;19811;-48
2022/06/14 00:53:13;;;;;;;;;6.00;6.00;;;;;22.07;43.24;101016.80;110292;1264;18516;-49
2022/06/14 00:55:40;;;;;;;;;6.00;6.00;;;;;22.06;43.24;101020.64;110341;1264;22862;-48
2022/06/14 00:58:08;;;;;;;;;6.00;6.00;;;;;22.05;43.15;101022.06;110222;1264;19904;-47
2022/06/14 01:00:36;;;;;;;;;6.00;6.00;;;;;22.01;43.45;101017.45;110306;1263;21901;-47
2022/06/14 01:03:03;;;;;;;;;5.33;5.00;;;;;22.02;43.14;101020.41;110316;1265;18721;-48
2022/06/14 01:06:05;;;;;;;;;6.00;5.00;;;;;21.98;43.37;101024.40;110300;1264;19594;-48
2022/06/14 01:08:17;;;;;;;;;5.00;5.00;;;;;21.99;43.63;101015.73;110266;1264;18528;-48
2022/06/14 01:10:47;;;;;;;;;6.67;6.00;;;;;21.98;43.54;101016.92;110342;1264;18813;-47
2022/06/14 01:13:16;;;;;;;;;7.00;6.00;;;;;22.00;43.46;101020.48;110256;1264;21650;-48
2022/06/14 01:15:44;;;;;;;;;6.00;6.00;;;;;22.01;43.61;101016.41;110174;1262;18547;-48
2022/06/14 01:18:11;;;;;;;;;5.67;5.67;;;;;22.00;43.49;101014.88;110277;1264;18763;-48
2022/06/14 01:20:39;;;;;;;;;6.00;6.00;;;;;21.97;43.52;101014.27;110270;1264;19632;-47
2022/06/14 01:23:06;;;;;;;;;6.00;5.00;;;;;21.98;43.38;101012.95;110294;1264;18435;-49
2022/06/14 01:25:33;;;;;;;;;6.33;6.00;;;;;21.97;43.44;101011.11;110302;1264;18748;-47
2022/06/14 01:28:01;;;;;;;;;9.00;7.00;;;;;21.99;43.29;101012.22;110283;1265;20133;-48
2022/06/14 01:30:28;;;;;;;;;6.00;6.00;;;;;21.97;43.42;101008.65;110294;1264;19262;-49
2022/06/14 01:32:55;;;;;;;;;6.00;5.33;;;;;21.97;43.27;101010.66;110293;1264;18791;-48
2022/06/14 01:35:22;;;;;;;;;6.00;5.67;;;;;21.98;43.18;101011.98;110303;1264;19717;-48
2022/06/14 01:37:50;;;;;;;;;8.33;7.00;;;;;21.98;43.11;101011.77;110308;1265;18462;-48
2022/06/14 01:40:17;;;;;;;;;7.00;6.00;;;;;21.95;43.08;101008.56;110271;1264;20962;-48
2022/06/14 01:42:44;;;;;;;;;6.67;6.00;;;;;21.95;43.10;101008.05;110304;1264;19794;-49
2022/06/14 01:45:12;;;;;;;;;7.00;6.00;;;;;21.94;43.08;101011.23;110316;1264;18560;-47
2022/06/14 01:47:39;;;;;;;;;6.67;6.00;;;;;21.93;43.30;101009.34;110246;1262;18759;-47
2022/06/14 01:52:51;;;;;;;;;8.00;8.00;;;;;21.93;43.37;101000.07;110334;1264;18390;-49
2022/06/14 01:55:18;;;;;;;;;7.00;6.00;;;;;21.94;43.26;101004.47;110277;1263;18791;-48
2022/06/14 01:57:46;;;;;;;;;7.33;6.00;;;;;21.94;43.24;101009.79;110289;1264;19498;-48
2022/06/14 02:00:14;;;;;;;;;5.00;5.00;;;;;21.91;43.28;101012.12;110299;1264;18656;-47
2022/06/14 02:02:41;;;;;;;;;6.00;5.00;;;;;21.87;43.43;101008.38;110289;1264;18936;-48
2022/06/14 02:05:08;;;;;;;;;8.00;8.00;;;;;21.86;43.41;101010.65;110304;1264;19560;-48
2022/06/14 02:07:35;;;;;;;;;6.00;5.00;;;;;21.83;43.39;101009.98;110254;1264;19923;-48
2022/06/14 02:10:03;;;;;;;;;6.00;6.00;;;;;21.79;43.54;101014.73;110279;1262;18733;-48
2022/06/14 02:12:30;;;;;;;;;10.00;9.00;;;;;21.79;43.41;101017.75;110278;1263;22273;-47
2022/06/14 02:14:57;;;;;;;;;6.00;6.00;;;;;21.78;43.55;101021.13;110274;1264;22139;-47
2022/06/14 02:17:25;;;;;;;;;8.33;8.00;;;;;21.70;43.54;101014.77;110305;1264;19522;-47
2022/06/14 02:19:52;;;;;;;;;8.00;7.00;;;;;21.67;43.63;101018.09;110318;1264;19603;-47
2022/06/14 02:22:19;;;;;;;;;9.00;8.67;;;;;21.69;43.61;101016.98;110261;1264;18475;-49
2022/06/14 02:24:46;;;;;;;;;9.00;9.00;;;;;21.68;43.54;101017.13;110236;1265;18771;-51
2022/06/14 02:27:14;;;;;;;;;8.00;8.00;;;;;21.67;43.36;101011.45;110252;1264;21656;-48
2022/06/14 02:29:41;;;;;;;;;6.00;6.00;;;;;21.63;43.68;101017.48;110298;1265;18472;-47
2022/06/14 02:32:08;;;;;;;;;6.00;6.00;;;;;21.64;43.50;101017.45;110299;1264;18748;-48
2022/06/14 02:34:35;;;;;;;;;6.00;6.00;;;;;21.65;43.39;101020.02;110332;1264;19766;-46
2022/06/14 02:37:04;;;;;;;;;7.33;7.33;;;;;21.66;43.26;101025.77;110264;1265;18393;-47
2022/06/14 02:39:31;;;;;;;;;8.00;6.00;;;;;21.61;43.37;101027.86;110298;1265;19288;-48
2022/06/14 02:41:58;;;;;;;;;6.67;6.00;;;;;21.60;43.44;101033.70;110295;1264;19575;-47
2022/06/14 02:44:26;;;;;;;;;6.00;6.00;;;;;21.61;43.61;101034.48;110265;1264;18585;-47
2022/06/14 02:46:53;;;;;;;;;5.00;5.00;;;;;21.58;43.48;101035.85;110336;1264;18736;-47
2022/06/14 02:49:21;;;;;;;;;5.33;5.33;;;;;21.54;43.40;101031.80;110290;1264;19755;-47
2022/06/14 02:51:48;;;;;;;;;6.67;6.67;;;;;21.55;43.41;101039.20;110279;1264;19309;-48
2022/06/14 02:54:15;;;;;;;;;6.00;6.00;;;;;21.54;43.63;101035.46;110269;1264;18795;-47
2022/06/14 02:57:00;;;;;;;;;6.00;5.50;;;;;21.51;43.73;101040.68;110289;1264;19627;-48
2022/06/14 02:59:45;;;;;;;;;7.00;7.00;;;;;21.53;43.80;101042.33;110286;1264;18620;-47
2022/06/14 03:02:31;;;;;;;;;8.00;6.00;;;;;21.54;43.68;101046.55;110297;1264;18751;-47
2022/06/14 03:05:15;;;;;;;;;5.33;5.33;;;;;21.53;43.84;101046.85;110265;1264;19528;-48
2022/06/14 03:08:01;;;;;;;;;6.00;6.00;;;;;21.51;43.60;101048.48;110371;1264;18839;-48
2022/06/14 03:10:46;;;;;;;;;5.67;5.67;;;;;21.47;44.07;101053.14;110343;1264;19702;-48
2022/06/14 03:13:31;;;;;;;;;6.00;6.00;;;;;21.47;44.01;101052.80;110326;1265;20298;-47
2022/06/14 03:16:19;;;;;;;;;6.00;6.00;;;;;21.46;43.92;101048.21;110277;1264;22829;-48
2022/06/14 03:19:04;;;;;;;;;5.00;5.00;;;;;21.48;44.02;101049.42;110285;1265;20096;-47
2022/06/14 03:21:31;;;;;;;;;8.33;8.00;;;;;21.48;44.13;101047.61;110279;1264;19758;-47
2022/06/14 03:23:59;;;;;;;;;6.00;6.00;;;;;21.51;43.96;101049.02;110291;1264;21266;-46
2022/06/14 03:26:26;;;;;;;;;5.00;5.00;;;;;21.53;44.00;101058.84;110296;1264;18841;-47
2022/06/14 03:28:53;;;;;;;;;6.00;6.00;;;;;21.52;44.10;101058.25;110338;1264;19774;-47
2022/06/14 03:31:21;;;;;;;;;6.00;6.00;;;;;21.50;43.98;101058.08;110350;1264;18474;-47
2022/06/14 03:33:49;;;;;;;;;6.67;6.67;;;;;21.48;44.13;101063.56;110286;1265;18737;-48
2022/06/14 03:36:16;;;;;;;;;8.00;8.00;;;;;21.48;44.32;101064.66;110292;1264;19495;-48
2022/06/14 03:38:44;;;;;;;;;8.67;8.67;;;;;21.46;44.41;101067.15;110309;1264;18542;-49
2022/06/14 03:41:11;;;;;;;;;9.00;8.33;;;;;21.46;44.60;101069.70;110302;1264;18812;-47
2022/06/14 03:43:38;;;;;;;;;8.00;8.00;;;;;21.46;44.68;101069.50;110348;1264;19668;-48
2022/06/14 03:46:05;;;;;;;;;9.00;8.00;;;;;21.46;44.42;101068.52;110285;1264;18935;-48
2022/06/14 03:48:33;;;;;;;;;9.00;9.00;;;;;21.42;44.61;101066.23;110248;1264;18755;-47
2022/06/14 03:51:00;;;;;;;;;8.00;6.67;;;;;21.46;44.59;101064.05;110280;1264;19480;-52
2022/06/14 03:53:27;;;;;;;;;8.00;8.00;;;;;21.41;44.82;101065.14;110318;1264;22211;-48
2022/06/14 03:55:55;;;;;;;;;6.67;6.67;;;;;21.41;44.79;101069.52;110335;1264;18795;-49
2022/06/14 03:58:22;;;;;;;;;5.67;5.00;;;;;21.36;45.02;101071.16;110265;1265;19414;-47
2022/06/14 04:00:49;;;;;;;;;5.67;5.00;;;;;21.29;45.26;101071.67;110314;1264;18596;-48
2022/06/14 04:03:16;;;;;;;;;6.00;6.00;;;;;21.40;45.01;101075.27;110300;1264;18854;-49
2022/06/14 04:05:44;;;;;;;;;5.50;5.00;;;;;21.46;44.81;101072.56;110297;1265;19681;-48
2022/06/14 04:08:11;;;;;;;;;8.00;7.33;;;;;21.45;44.69;101074.98;110282;1264;20029;-49
2022/06/14 04:10:39;;;;;;;;;7.33;6.00;;;;;21.50;44.85;101078.63;110305;1264;18738;-48
2022/06/14 04:13:08;;;;;;;;;7.33;6.33;;;;;21.53;44.87;101077.33;110235;1264;19488;-48
2022/06/14 04:15:35;;;;;;;;;9.33;8.00;;;;;21.50;44.84;101077.88;110298;1264;19914;-48
2022/06/14 04:18:34;;;;;;;;;5.50;5.00;;;;;21.53;45.01;101074.16;110319;1264;18691;-49
2022/06/14 04:20:50;;;;;;;;;7.33;5.33;;;;;21.59;44.81;101071.02;110243;1265;19484;-48
2022/06/14 04:23:17;;;;;;;;;5.67;5.67;;;;;21.78;44.93;101073.50;110269;1264;18363;-45
2022/06/14 04:25:45;;;;;;;;;6.00;6.00;;;;;21.95;44.59;101071.13;110266;1264;18659;-49
2022/06/14 04:28:12;;;;;;;;;6.00;6.00;;;;;22.19;44.26;101066.24;110222;1264;19660;-48
2022/06/14 04:30:39;;;;;;;;;5.00;5.00;;;;;22.35;44.65;101072.62;110212;1264;18718;-48
2022/06/14 04:33:06;;;;;;;;;5.33;5.33;;;;;22.43;44.48;101072.67;110260;1264;18840;-47
2022/06/14 04:35:34;;;;;;;;;5.00;5.00;;;;;22.42;44.50;101073.17;110303;1264;19548;-48
2022/06/14 04:38:01;;;;;;;;;6.00;6.00;;;;;22.40;44.64;101078.84;110322;1264;18671;-48
2022/06/14 04:40:28;;;;;;;;;6.00;6.00;;;;;22.44;45.18;101071.66;110264;1264;18719;-49
2022/06/14 04:42:55;;;;;;;;;5.33;5.33;;;;;22.50;45.75;101071.70;110276;1264;19476;-49
2022/06/14 04:45:23;;;;;;;;;6.00;6.00;;;;;22.53;45.79;101067.88;110284;1265;22974;-48
2022/06/14 04:47:50;;;;;;;;;6.00;5.33;;;;;22.56;46.37;101069.64;110243;1264;18776;-48
2022/06/14 04:50:17;;;;;;;;;5.00;5.00;;;;;22.63;46.24;101074.22;110258;1264;19677;-47
2022/06/14 04:52:48;;;;;;;;;5.50;5.00;;;;;22.67;45.71;101074.17;110307;1264;19169;-48
2022/06/14 04:55:15;;;;;;;;;6.00;5.50;;;;;22.70;46.38;101072.92;110265;1264;19126;-49
2022/06/14 04:57:43;;;;;;;;;5.00;5.00;;;;;22.74;46.13;101073.45;110244;1264;19473;-49
2022/06/14 05:00:11;;;;;;;;;6.00;5.67;;;;;22.75;46.13;101070.94;110254;1264;18721;-47
2022/06/14 05:02:38;;;;;;;;;5.67;5.67;;;;;22.71;45.98;101073.36;110234;1264;18761;-47
2022/06/14 05:05:05;;;;;;;;;6.00;6.00;;;;;22.70;46.01;101072.58;110307;1264;19928;-48
2022/06/14 05:07:32;;;;;;;;;8.33;7.00;;;;;22.70;45.84;101068.88;110260;1264;18479;-48
2022/06/14 05:10:00;;;;;;;;;6.00;5.33;;;;;22.68;45.67;101072.39;110258;1264;21785;-47
2022/06/14 05:12:27;;;;;;;;;5.33;5.33;;;;;22.70;45.77;101076.58;110218;1264;19419;-48
2022/06/14 05:14:54;;;;;;;;;7.00;6.33;;;;;22.75;45.69;101077.63;110276;1265;18470;-50
2022/06/14 05:17:22;;;;;;;;;5.67;5.67;;;;;22.74;45.18;101079.72;110254;1264;18790;-47
2022/06/14 05:19:49;;;;;;;;;6.00;6.00;;;;;22.66;45.47;101077.77;110323;1265;21942;-49
2022/06/14 05:22:17;;;;;;;;;7.00;6.00;;;;;22.69;45.56;101081.42;110253;1264;18472;-49
2022/06/14 05:24:45;;;;;;;;;5.00;5.00;;;;;22.70;45.22;101086.23;110256;1264;18869;-48
2022/06/14 05:27:12;;;;;;;;;6.33;6.00;;;;;22.71;45.11;101087.02;110235;1263;19456;-48
2022/06/14 05:29:39;;;;;;;;;5.00;5.00;;;;;22.76;44.95;101086.77;110261;1264;18501;-50
2022/06/14 05:32:07;;;;;;;;;7.67;6.33;;;;;22.80;45.01;101083.23;110299;1264;22779;-48
2022/06/14 05:34:34;;;;;;;;;5.00;5.00;;;;;22.78;44.81;101083.63;110225;1264;19185;-48
2022/06/14 05:37:01;;;;;;;;;5.00;5.00;;;;;22.77;44.61;101081.04;110197;1264;18431;-48
2022/06/14 05:39:29;;;;;;;;;5.33;5.00;;;;;22.80;44.34;101079.24;110263;1264;18607;-49
2022/06/14 05:41:57;;;;;;;;;5.00;5.00;;;;;22.79;44.62;101074.02;110016;1262;226849;-48
2022/06/14 05:44:24;;;;;;;;;9.00;7.00;;;;;22.86;44.57;101070.45;110136;1264;22537;-48
2022/06/14 05:46:51;;;;;;;;;5.67;5.00;;;;;22.85;44.32;101073.84;110207;1264;19197;-47
2022/06/14 05:49:18;;;;;;;;;6.00;5.00;;;;;22.84;44.33;101072.85;110195;1264;20011;-46
2022/06/14 05:51:46;;;;;;;;;6.00;5.00;;;;;22.82;44.59;101079.67;110234;1264;18461;-47
2022/06/14 05:54:13;;;;;;;;;6.50;5.50;;;;;22.82;44.60;101078.77;110248;1264;19253;-48
2022/06/14 05:56:40;;;;;;;;;5.67;5.67;;;;;22.83;44.58;101075.77;110245;1264;20246;-47
2022/06/14 05:59:08;;;;;;;;;6.00;5.50;;;;;22.85;44.42;101079.01;110267;1264;18544;-48
2022/06/14 06:01:35;;;;;;;;;6.00;5.00;;;;;22.83;44.71;101080.65;110252;1265;18754;-48
2022/06/14 06:04:02;;;;;;;;;5.33;4.00;;;;;22.84;44.76;101082.81;110178;1264;21949;-47
2022/06/14 06:06:29;;;;;;;;;5.67;5.67;;;;;22.89;44.74;101086.16;110178;1264;19144;-48
2022/06/14 06:08:57;;;;;;;;;6.00;6.00;;;;;23.03;44.66;101090.36;110044;1264;18801;-50
2022/06/14 06:11:24;;;;;;;;;6.00;6.00;;;;;23.05;44.60;101095.02;110196;1265;19556;-50
2022/06/14 06:13:51;;;;;;;;;8.67;8.67;;;;;23.05;44.47;101089.92;110302;1264;22010;-50
2022/06/14 06:16:18;;;;;;;;;5.33;5.33;;;;;23.03;44.44;101089.81;109980;1264;22682;-49
2022/06/14 06:18:46;;;;;;;;;8.67;8.33;;;;;23.02;44.37;101091.91;110215;1264;19634;-53
2022/06/14 06:21:13;;;;;;;;;8.67;8.67;;;;;23.01;44.51;101093.33;110258;1264;19978;-50
2022/06/14 06:23:40;;;;;;;;;7.67;7.67;;;;;23.01;44.60;101095.67;110286;1264;18838;-48
2022/06/14 06:26:07;;;;;;;;;10.00;10.00;;;;;23.04;44.47;101098.25;110319;1264;19434;-49
2022/06/14 06:28:35;;;;;;;;;10.67;10.67;;;;;23.05;44.44;101093.25;110258;1263;18500;-48
2022/06/14 06:31:03;;;;;;;;;9.67;8.00;;;;;23.11;44.27;101095.38;110239;1264;18890;-48
2022/06/14 06:33:30;;;;;;;;;12.00;9.50;;;;;23.12;44.28;101095.77;110202;1264;19767;-48
2022/06/14 06:35:58;;;;;;;;;10.00;8.00;;;;;23.13;44.43;101094.55;110227;1263;19080;-46
2022/06/14 06:38:25;;;;;;;;;10.00;10.00;;;;;23.18;44.61;101098.13;110270;1264;22080;-49
2022/06/14 06:43:33;;;;;;;;;10.33;10.33;;;;;23.26;44.81;101098.89;110228;1264;18696;-49
2022/06/14 06:46:01;;;;;;;;;9.00;9.00;;;;;23.28;45.00;101100.34;110240;1264;21305;-49
2022/06/14 06:48:28;;;;;;;;;6.00;6.00;;;;;23.26;44.92;101099.81;110220;1264;19717;-48
2022/06/14 06:50:56;;;;;;;;;6.00;6.00;;;;;23.28;44.93;101102.48;110203;1264;19269;-48
2022/06/14 06:53:23;;;;;;;;;6.00;6.00;;;;;23.29;45.07;101098.37;110235;1264;19226;-47
2022/06/14 06:55:51;;;;;;;;;7.00;7.00;;;;;23.29;44.70;101100.02;110246;1265;19848;-48
2022/06/14 06:58:18;;;;;;;;;11.00;9.00;;;;;23.28;44.63;101094.95;110179;1264;18670;-49
2022/06/14 07:00:45;;;;;;;;;6.00;6.00;;;;;23.30;45.63;101101.17;110179;1264;19202;-47
2022/06/14 07:03:13;;;;;;;;;6.33;6.33;;;;;23.36;46.10;101096.06;110115;1265;19626;-48
2022/06/14 07:05:40;;;;;;;;;8.33;7.00;;;;;23.33;45.61;101101.65;110175;1265;18495;-48
2022/06/14 07:08:07;;;;;;;;;9.00;7.00;;;;;23.28;45.16;101098.66;110220;1262;21236;-48
2022/06/14 07:10:35;;;;;;;;;7.00;6.33;;;;;23.25;45.33;101099.92;110245;1264;19493;-48
2022/06/14 07:13:02;;;;;;;;;6.00;6.00;;;;;23.25;45.33;101096.64;110221;1264;18593;-48
2022/06/14 07:15:29;;;;;;;;;7.00;7.00;;;;;23.28;45.18;101096.95;110199;1263;18749;-49
2022/06/14 07:17:57;;;;;;;;;7.00;6.00;;;;;23.32;44.92;101093.63;110126;1262;19847;-49
2022/06/14 07:20:24;;;;;;;;;15.33;15.00;;;;;23.34;44.95;101095.55;110105;1262;18704;-47
2022/06/14 07:22:51;;;;;;;;;58.67;46.00;;;;;23.38;44.95;101096.02;110237;1264;18916;-49
2022/06/14 07:25:19;;;;;;;;;63.67;45.00;;;;;23.39;44.60;101093.50;110149;1263;22758;-48
2022/06/14 07:27:46;;;;;;;;;73.50;55.50;;;;;23.34;44.39;101090.56;110170;1264;18847;-47
2022/06/14 07:30:13;;;;;;;;;58.00;44.50;;;;;23.30;44.18;101089.52;110134;1264;18980;-49
2022/06/14 07:32:40;;;;;;;;;41.00;35.00;;;;;23.31;44.45;101086.92;110170;1264;19558;-49
2022/06/14 07:35:08;;;;;;;;;32.67;29.00;;;;;23.38;44.53;101081.33;110215;1263;23545;-48
2022/06/14 07:37:35;;;;;;;;;32.00;27.00;;;;;23.45;44.58;101079.55;110221;1264;18796;-50
2022/06/14 07:40:03;;;;;;;;;30.50;26.00;;;;;23.51;44.44;101079.59;110234;1264;20934;-49
2022/06/14 07:42:30;;;;;;;;;36.67;28.67;;;;;23.51;44.23;101081.10;110202;1264;18951;-50
2022/06/14 07:44:57;;;;;;;;;24.00;23.00;;;;;23.51;44.24;101080.05;110254;1264;18796;-48
2022/06/14 07:47:24;;;;;;;;;25.00;22.00;;;;;23.47;44.04;101090.14;110186;1262;19956;-47
2022/06/14 07:49:52;;;;;;;;;22.00;20.00;;;;;23.44;43.82;101091.20;110299;1264;18706;-48
2022/06/14 07:52:19;;;;;;;;;22.00;20.00;;;;;23.47;43.88;101090.60;110267;1264;18873;-48
2022/06/14 07:54:46;;;;;;;;;21.00;19.00;;;;;23.50;43.73;101090.61;110196;1264;19544;-47
2022/06/14 07:57:13;;;;;;;;;22.00;18.67;;;;;23.46;43.35;101090.05;110207;1264;19420;-48
2022/06/14 07:59:41;;;;;;;;;15.00;15.00;;;;;23.34;43.43;101089.02;110291;1264;18941;-48
2022/06/14 08:02:08;;;;;;;;;15.67;13.33;;;;;23.15;43.63;101089.91;110284;1265;19517;-48
2022/06/14 08:04:35;;;;;;;;;15.00;15.00;;;;;23.04;43.68;101097.13;110166;1264;18778;-50
2022/06/14 08:07:03;;;;;;;;;14.67;14.00;;;;;22.99;43.78;101096.98;110185;1264;18727;-46
2022/06/14 08:09:30;;;;;;;;;14.67;14.33;;;;;22.98;43.68;101104.75;110217;1264;19565;-48
2022/06/14 08:11:57;;;;;;;;;18.67;14.67;;;;;22.97;43.75;101108.23;110283;1265;18749;-48
2022/06/14 08:14:25;;;;;;;;;11.67;11.67;;;;;22.98;43.71;101112.48;110203;1264;19010;-48
2022/06/14 08:16:53;;;;;;;;;13.33;11.67;;;;;23.04;43.88;101116.88;110216;1264;19471;-47
2022/06/14 08:19:20;;;;;;;;;11.00;11.00;;;;;22.98;43.90;101117.88;110223;1264;18767;-48
2022/06/14 08:21:47;;;;;;;;;12.00;12.00;;;;;22.95;43.94;101118.07;110252;1264;18749;-47
2022/06/14 08:24:15;;;;;;;;;9.67;9.67;;;;;22.94;43.97;101123.65;110216;1264;22170;-48
2022/06/14 08:26:42;;;;;;;;;11.00;11.00;;;;;22.92;43.85;101123.73;110199;1264;18696;-49
2022/06/14 08:29:10;;;;;;;;;10.33;10.00;;;;;22.93;43.90;101126.73;110284;1264;19036;-49
2022/06/14 08:31:37;;;;;;;;;9.00;7.67;;;;;22.95;43.63;101125.94;110187;1264;19645;-47
2022/06/14 08:34:04;;;;;;;;;8.00;7.00;;;;;22.96;43.58;101121.27;110252;1262;18701;-49
2022/06/14 08:36:31;;;;;;;;;8.33;8.33;;;;;22.96;43.49;101118.55;110243;1262;19008;-48
2022/06/14 08:38:59;;;;;;;;;11.00;10.00;;;;;22.92;43.63;101117.67;110221;1264;22023;-47
2022/06/14 08:41:26;;;;;;;;;9.00;7.00;;;;;22.88;43.88;101116.04;110277;1264;18525;-46
2022/06/14 08:43:53;;;;;;;;;11.00;10.00;;;;;22.84;43.68;101121.40;110309;1265;22919;-47
2022/06/14 08:46:21;;;;;;;;;9.00;8.00;;;;;22.79;43.87;101127.30;110257;1262;19798;-49
2022/06/14 08:48:48;;;;;;;;;9.67;9.00;;;;;22.83;44.02;101129.92;110226;1265;19101;-48
2022/06/14 08:51:15;;;;;;;;;7.67;7.67;;;;;22.95;43.83;101127.71;110254;1264;18753;-47
2022/06/14 08:53:43;;;;;;;;;7.00;7.00;;;;;23.05;43.64;101131.29;110247;1264;19582;-46
2022/06/14 08:56:10;;;;;;;;;7.00;7.00;;;;;23.09;43.36;101125.65;110277;1264;18437;-48
2022/06/14 08:58:37;;;;;;;;;7.00;7.00;;;;;23.14;43.26;101122.66;110252;1264;18771;-48
2022/06/14 09:01:05;;;;;;;;;10.00;9.00;;;;;23.19;43.35;101121.37;110235;1264;19805;-48
2022/06/14 09:03:32;;;;;;;;;7.00;7.00;;;;;23.22;43.21;101123.05;110217;1264;19654;-50
2022/06/14 09:05:59;;;;;;;;;7.00;6.67;;;;;23.24;42.95;101122.89;110178;1264;19005;-48
2022/06/14 09:08:26;;;;;;;;;6.00;6.00;;;;;23.23;43.02;101123.15;110227;1264;19557;-44
2022/06/14 09:10:53;;;;;;;;;7.00;7.00;;;;;23.21;42.90;101125.42;110211;1264;21631;-48
2022/06/14 09:13:21;;;;;;;;;6.00;6.00;;;;;23.27;42.90;101123.00;110230;1264;19074;-46
2022/06/14 09:15:48;;;;;;;;;7.00;7.00;;;;;23.29;42.78;101122.16;110231;1264;21863;-47
2022/06/14 09:18:16;;;;;;;;;6.50;6.00;;;;;23.30;42.72;101123.38;110234;1263;18387;-48
2022/06/14 09:20:43;;;;;;;;;6.00;6.00;;;;;23.31;42.58;101119.48;110179;1264;19272;-48
2022/06/14 09:23:10;;;;;;;;;6.00;6.00;;;;;23.34;42.61;101116.61;110295;1264;19562;-48
2022/06/14 09:25:37;;;;;;;;;7.00;7.00;;;;;23.36;42.58;101117.86;110260;1263;23574;-48
2022/06/14 09:28:05;;;;;;;;;6.00;5.33;;;;;23.39;42.38;101119.17;110266;1264;22426;-47
2022/06/14 09:30:32;;;;;;;;;5.33;5.33;;;;;23.40;42.53;101120.70;110239;1264;19566;-49
2022/06/14 09:33:13;;;;;;;;;8.00;6.50;;;;;23.41;42.41;101120.72;110238;1264;18591;-47
2022/06/14 09:35:41;;;;;;;;;5.00;5.00;;;;;23.40;42.42;101121.96;110219;1262;18793;-49
2022/06/14 09:38:08;;;;;;;;;6.00;6.00;;;;;23.38;42.30;101120.25;110199;1264;19444;-49
2022/06/14 09:40:36;;;;;;;;;6.00;6.00;;;;;23.39;42.22;101123.04;110208;1264;21346;-50
2022/06/14 09:43:05;;;;;;;;;9.33;7.00;;;;;23.41;42.27;101122.59;110174;1264;18714;-49
2022/06/14 09:45:33;;;;;;;;;7.00;6.33;;;;;23.45;42.00;101125.41;110247;1264;20338;-49
2022/06/14 09:48:01;;;;;;;;;7.00;7.00;;;;;23.43;41.72;101123.20;110259;1264;18594;-49
2022/06/14 09:50:30;;;;;;;;;7.00;7.00;;;;;23.35;41.70;101123.23;110250;1264;21282;-50
2022/06/14 09:52:57;;;;;;;;;7.00;7.00;;;;;23.30;41.48;101128.99;110279;1264;19653;-48
2022/06/14 09:55:25;;;;;;;;;6.00;6.00;;;;;23.28;41.32;101131.34;110256;1265;18765;-49
2022/06/14 09:57:52;;;;;;;;;5.33;5.33;;;;;23.26;41.45;101131.75;110237;1264;18697;-49
2022/06/14 10:00:21;;;;;;;;;6.50;6.50;;;;;23.23;41.13;101133.67;110254;1264;19607;-47
2022/06/14 10:02:48;;;;;;;;;6.00;6.00;;;;;23.21;41.07;101140.91;110251;1264;18406;-48
2022/06/14 10:05:15;;;;;;;;;5.00;5.00;;;;;23.20;41.47;101140.27;110314;1264;22784;-54
2022/06/14 10:07:42;;;;;;;;;6.00;6.00;;;;;23.20;41.31;101140.23;110247;1264;19425;-48
2022/06/14 10:10:10;;;;;;;;;6.00;5.67;;;;;23.21;41.17;101140.49;110090;1263;18398;-49
2022/06/14 10:12:37;;;;;;;;;7.00;6.00;;;;;23.21;41.53;101142.48;110204;1264;18717;-51
2022/06/14 10:15:04;;;;;;;;;4.33;4.33;;;;;23.20;41.40;101149.23;110233;1263;19673;-49
2022/06/14 10:17:32;;;;;;;;;8.33;7.67;;;;;23.19;41.43;101148.71;110207;1264;18591;-48
2022/06/14 10:19:59;;;;;;;;;6.00;6.00;;;;;23.19;41.52;101147.45;110202;1264;18676;-48
2022/06/14 10:22:26;;;;;;;;;7.00;6.00;;;;;23.18;41.29;101150.33;110164;1264;22735;-47
2022/06/14 10:24:53;;;;;;;;;7.00;7.00;;;;;23.19;41.14;101149.34;110201;1263;18605;-49
2022/06/14 10:30:05;;;;;;;;;6.00;6.00;;;;;23.17;41.32;101153.71;110232;1264;19811;-49
2022/06/14 10:32:33;;;;;;;;;6.00;6.00;;;;;23.19;41.38;101154.22;110230;1264;18511;-48
2022/06/14 10:35:00;;;;;;;;;6.33;6.33;;;;;23.21;41.30;101151.64;110273;1264;22287;-48
2022/06/14 10:37:27;;;;;;;;;5.00;5.00;;;;;23.23;41.52;101154.29;110249;1264;19648;-50
2022/06/14 10:39:55;;;;;;;;;7.00;7.00;;;;;23.25;41.33;101153.90;110168;1265;18507;-48
2022/06/14 10:42:22;;;;;;;;;6.00;6.00;;;;;23.22;41.29;101150.85;110190;1264;19470;-48
2022/06/14 10:44:51;;;;;;;;;6.00;6.00;;;;;23.18;41.30;101151.90;110132;1264;19765;-49
2022/06/14 10:47:18;;;;;;;;;5.00;5.00;;;;;23.17;41.05;101153.37;110281;1264;18487;-49
2022/06/14 10:49:45;;;;;;;;;8.33;6.67;;;;;23.16;41.14;101147.58;110204;1264;18673;-52
2022/06/14 10:52:14;;;;;;;;;6.00;6.00;;;;;23.15;41.10;101153.02;110251;1264;19474;-48
2022/06/14 10:54:41;;;;;;;;;6.50;6.50;;;;;23.14;41.10;101150.77;110215;1264;18419;-49
2022/06/14 10:57:10;;;;;;;;;6.00;6.00;;;;;23.13;41.03;101152.31;110272;1264;18758;-47
2022/06/14 10:59:37;;;;;;;;;7.00;6.00;;;;;23.16;41.26;101158.63;110096;1262;19842;-46
2022/06/14 11:02:05;;;;;;;;;10.00;9.00;;;;;23.21;41.09;101164.91;110306;1264;19000;-47
2022/06/14 11:04:32;;;;;;;;;7.00;7.00;;;;;23.29;41.20;101168.39;110211;1264;23447;-47
2022/06/14 11:06:59;;;;;;;;;6.67;5.67;;;;;23.29;41.27;101174.92;110249;1265;19524;-48
2022/06/14 11:09:27;;;;;;;;;6.00;6.00;;;;;23.32;41.38;101177.04;110239;1265;18449;-48
2022/06/14 11:11:55;;;;;;;;;6.67;6.67;;;;;23.34;42.24;101181.58;110267;1264;18711;-49
2022/06/14 11:14:22;;;;;;;;;6.00;6.00;;;;;23.37;43.07;101183.81;110197;1265;19740;-46
2022/06/14 11:16:50;;;;;;;;;7.00;6.00;;;;;23.35;43.02;101184.98;110265;1264;18911;-48
2022/06/14 11:19:23;;;;;;;;;6.00;6.00;;;;;23.36;42.92;101186.16;110246;1264;18933;-46
2022/06/14 11:21:51;;;;;;;;;6.00;6.00;;;;;23.36;43.69;101195.23;110248;1265;19344;-49
2022/06/14 11:24:18;;;;;;;;;6.00;6.00;;;;;23.33;43.18;101191.89;110149;1264;22696;-44
2022/06/14 11:26:46;;;;;;;;;6.00;6.00;;;;;23.30;43.10;101194.64;110193;1264;18881;-47
2022/06/14 11:29:13;;;;;;;;;6.00;6.00;;;;;23.28;42.78;101197.63;110281;1264;19643;-46